Time;durP1;ratioP1;P1;durP2;ratioP2;P2;SDS_P1;SDS_P2;PMS_P1;PMS_P2;Temp;Humidity;BMP_temperature;BMP_pressure;BME280_temperature;BME280_humidity;BME280_pressure;Samples;Min_cycle;Max_cycle;Signal;HPM_P1;HPM_P2
2023/03/06 00:00:43;;;;;;;28.20;13.95;;;;;;;2.02;49.45;93219.97;5021890;28;20040;-78
2023/03/06 00:03:08;;;;;;;25.25;14.02;;;;;;;2.14;48.95;93215.16;5023968;28;20041;-75
2023/03/06 00:05:34;;;;;;;23.70;15.40;;;;;;;2.24;48.65;93209.81;5022430;28;20375;-76
2023/03/06 00:07:59;;;;;;;24.20;13.30;;;;;;;2.47;48.42;93222.22;5027362;28;20485;-76
2023/03/06 00:10:27;;;;;;;18.15;12.23;;;;;;;2.28;48.43;93217.91;5006732;28;20018;-77
2023/03/06 00:12:56;;;;;;;19.52;12.52;;;;;;;2.35;48.36;93213.91;5022348;28;20471;-74
2023/03/06 00:15:23;;;;;;;23.10;12.25;;;;;;;2.50;48.03;93221.66;5021563;28;20049;-75
2023/03/06 00:17:48;;;;;;;20.08;12.60;;;;;;;2.46;47.78;93194.38;5025627;28;20045;-77
2023/03/06 00:20:14;;;;;;;19.77;12.48;;;;;;;2.59;47.50;93219.22;5022498;28;20488;-76
2023/03/06 00:22:40;;;;;;;22.58;12.60;;;;;;;2.53;47.52;93212.44;5022259;28;20482;-77
2023/03/06 00:25:06;;;;;;;17.48;12.18;;;;;;;2.36;47.66;93204.97;5022503;28;20081;-75
2023/03/06 00:27:32;;;;;;;19.20;11.23;;;;;;;2.22;47.63;93204.06;5019930;28;20456;-75
2023/03/06 00:29:59;;;;;;;20.27;12.70;;;;;;;2.22;47.67;93211.16;5021480;28;20033;-75
2023/03/06 00:32:26;;;;;;;18.80;13.13;;;;;;;2.26;47.55;93210.31;5023948;28;20149;-75
2023/03/06 00:34:52;;;;;;;21.27;12.80;;;;;;;1.94;47.90;93196.94;5019575;28;20022;-76
2023/03/06 00:37:18;;;;;;;20.13;11.90;;;;;;;1.88;48.11;93224.25;5021198;28;20116;-75
2023/03/06 00:39:44;;;;;;;18.35;12.00;;;;;;;1.80;48.05;93211.72;5000366;28;20040;-75
2023/03/06 00:42:09;;;;;;;18.50;12.52;;;;;;;1.60;47.96;93181.97;5024816;28;20033;-75
2023/03/06 00:44:34;;;;;;;19.67;12.25;;;;;;;1.63;48.28;93206.81;5003120;28;20037;-76
2023/03/06 00:47:00;;;;;;;19.17;12.88;;;;;;;1.45;48.08;93183.88;5025603;28;20049;-76
2023/03/06 00:49:25;;;;;;;22.25;12.27;;;;;;;1.38;47.77;93188.63;5024721;28;20674;-75
2023/03/06 00:51:50;;;;;;;22.63;13.18;;;;;;;1.60;47.97;93196.91;5025243;28;20042;-75
2023/03/06 00:54:16;;;;;;;19.80;12.23;;;;;;;1.58;48.08;93210.25;5026061;28;20052;-76
2023/03/06 00:56:41;;;;;;;20.90;12.57;;;;;;;1.57;47.95;93182.47;5011924;28;20044;-76
2023/03/06 00:59:09;;;;;;;25.25;13.20;;;;;;;1.43;49.44;93185.97;5023920;28;20025;-76
2023/03/06 01:01:34;;;;;;;23.75;13.80;;;;;;;1.43;49.77;93185.97;5019771;28;20719;-75
2023/03/06 01:04:00;;;;;;;23.08;13.30;;;;;;;1.45;49.19;93178.66;5021942;28;20076;-76
2023/03/06 01:06:26;;;;;;;21.05;12.93;;;;;;;1.26;49.36;93178.50;5022266;28;20033;-75
2023/03/06 01:08:52;;;;;;;19.45;12.90;;;;;;;1.30;49.04;93155.16;5005583;28;20713;-76
2023/03/06 01:11:17;;;;;;;20.25;12.55;;;;;;;1.45;48.60;93174.19;5020805;28;20088;-76
2023/03/06 01:13:43;;;;;;;20.08;11.68;;;;;;;1.52;48.80;93172.03;5024078;28;20029;-75
2023/03/06 01:16:11;;;;;;;22.05;13.10;;;;;;;1.47;48.62;93166.81;5022084;28;20109;-76
2023/03/06 01:18:37;;;;;;;19.15;12.13;;;;;;;1.68;48.37;93178.75;5020475;28;20046;-76
2023/03/06 01:21:04;;;;;;;27.77;13.93;;;;;;;1.77;48.66;93191.25;5022149;28;20036;-76
2023/03/06 01:23:29;;;;;;;20.13;11.90;;;;;;;1.85;48.21;93199.34;5019921;28;20091;-75
2023/03/06 01:25:55;;;;;;;21.35;13.45;;;;;;;1.77;48.45;93180.78;5010353;28;20524;-75
2023/03/06 01:28:20;;;;;;;21.55;13.15;;;;;;;1.77;48.70;93202.53;5004931;28;20101;-75
2023/03/06 01:30:46;;;;;;;23.25;14.00;;;;;;;1.77;48.41;93180.78;5020563;28;20038;-76
2023/03/06 01:33:11;;;;;;;23.52;12.93;;;;;;;1.81;48.65;93179.19;5015413;28;20552;-75
2023/03/06 01:35:37;;;;;;;22.17;12.15;;;;;;;1.95;48.43;93207.19;5018375;28;20064;-76
2023/03/06 01:38:03;;;;;;;21.08;12.57;;;;;;;1.97;48.44;93196.41;5019203;28;20057;-75
2023/03/06 01:40:31;;;;;;;24.27;14.43;;;;;;;1.72;48.93;93178.22;5019841;28;20051;-75
2023/03/06 01:42:57;;;;;;;22.85;13.95;;;;;;;1.61;48.87;93170.44;5000643;28;20091;-74
2023/03/06 01:45:22;;;;;;;28.20;13.63;;;;;;;1.76;48.79;93197.59;5017550;28;20033;-75
2023/03/06 01:47:47;;;;;;;23.50;14.55;;;;;;;1.82;48.62;93165.00;5016074;28;20037;-76
2023/03/06 01:50:13;;;;;;;20.05;12.25;;;;;;;1.95;48.86;93191.44;5016968;28;20025;-76
2023/03/06 01:52:52;;;;;;;19.10;12.40;;;;;;;1.81;48.84;93200.97;5014198;28;20025;-75
2023/03/06 01:55:26;;;;;;;23.35;13.75;;;;;;;1.84;48.89;93181.25;5019298;28;20508;-74
2023/03/06 01:57:56;;;;;;;22.45;13.43;;;;;;;1.66;49.29;93186.13;5014884;28;20026;-75
2023/03/06 02:00:27;;;;;;;18.88;13.00;;;;;;;1.74;49.71;93192.59;5021396;28;20445;-75
2023/03/06 02:03:12;;;;;;;20.77;12.73;;;;;;;1.64;49.61;93182.19;5022023;28;20048;-75
2023/03/06 02:05:40;;;;;;;23.70;12.70;;;;;;;1.67;49.54;93185.03;5012848;28;20040;-76
2023/03/06 02:08:06;;;;;;;21.60;14.25;;;;;;;1.68;49.62;93189.22;5018672;28;20128;-76
2023/03/06 02:10:32;;;;;;;21.95;13.48;;;;;;;1.70;49.43;93172.44;5025768;28;20044;-76
2023/03/06 02:12:58;;;;;;;26.40;14.45;;;;;;;1.67;49.71;93192.91;5019513;28;20054;-75
2023/03/06 02:15:27;;;;;;;22.50;13.52;;;;;;;1.52;49.69;93177.28;5023726;28;20030;-76
2023/03/06 02:17:52;;;;;;;17.92;11.65;;;;;;;1.52;49.84;93194.88;5021273;28;20049;-75
2023/03/06 02:20:35;;;;;;;21.50;13.15;;;;;;;1.37;49.90;93190.50;5023996;28;20661;-75
2023/03/06 02:23:05;;;;;;;19.63;13.02;;;;;;;1.60;49.98;93192.44;5018886;28;20053;-77
2023/03/06 02:25:33;;;;;;;22.00;12.93;;;;;;;1.54;49.80;93187.50;5003647;28;20501;-76
2023/03/06 02:27:59;;;;;;;18.98;13.73;;;;;;;1.37;50.21;93192.31;5005424;28;20047;-77
2023/03/06 02:30:26;;;;;;;21.23;13.68;;;;;;;1.31;50.38;93199.44;4999976;28;20053;-75
2023/03/06 02:32:52;;;;;;;21.35;13.18;;;;;;;1.11;50.51;93173.34;4991359;28;20107;-76
2023/03/06 02:35:22;;;;;;;21.98;12.70;;;;;;;1.40;50.44;93186.53;4997012;28;20085;-74
2023/03/06 02:37:48;;;;;;;24.88;12.68;;;;;;;0.93;50.62;93158.25;5009291;28;20622;-75
2023/03/06 02:40:16;;;;;;;17.58;12.48;;;;;;;1.21;51.00;93189.78;5002864;28;20585;-76
2023/03/06 02:42:47;;;;;;;23.13;13.13;;;;;;;1.26;50.78;93196.84;5002017;28;20057;-76
2023/03/06 02:45:16;;;;;;;23.08;13.88;;;;;;;1.12;51.12;93194.03;5004948;28;20034;-76
2023/03/06 02:47:41;;;;;;;20.15;13.82;;;;;;;1.29;50.74;93201.53;5002069;28;20070;-75
2023/03/06 02:50:08;;;;;;;20.85;13.38;;;;;;;1.17;50.71;93178.28;5000806;28;20096;-75
2023/03/06 02:52:33;;;;;;;25.85;14.38;;;;;;;1.19;50.94;93185.84;4985610;28;20018;-76
2023/03/06 02:54:59;;;;;;;21.42;12.70;;;;;;;1.06;50.87;93181.22;4998706;28;20387;-75
2023/03/06 02:57:24;;;;;;;26.08;13.60;;;;;;;1.24;50.83;93209.41;4998023;28;20109;-74
2023/03/06 02:59:49;;;;;;;20.65;13.40;;;;;;;1.24;50.79;93188.44;5000919;28;20048;-75
2023/03/06 03:02:17;;;;;;;24.20;15.32;;;;;;;1.23;51.13;93194.72;5004328;28;20601;-76
2023/03/06 03:04:43;;;;;;;21.65;12.70;;;;;;;1.31;50.53;93177.69;4990750;28;20070;-75
2023/03/06 03:07:08;;;;;;;26.83;13.75;;;;;;;1.49;50.04;93177.03;5005516;28;20034;-76
2023/03/06 03:09:35;;;;;;;21.45;13.90;;;;;;;1.33;50.73;93207.78;5006143;28;20863;-76
2023/03/06 03:12:03;;;;;;;24.63;12.95;;;;;;;1.28;50.77;93197.31;4985449;28;20038;-75
2023/03/06 03:14:29;;;;;;;22.23;14.15;;;;;;;1.33;50.69;93188.66;5002978;28;20041;-75
2023/03/06 03:16:54;;;;;;;25.60;15.70;;;;;;;1.44;50.08;93177.84;5002551;28;20026;-75
2023/03/06 03:19:20;;;;;;;25.98;14.73;;;;;;;1.83;49.98;93217.19;5004525;28;20038;-76
2023/03/06 03:21:45;;;;;;;23.98;13.85;;;;;;;2.10;49.22;93219.38;5006351;28;20049;-76
2023/03/06 03:24:11;;;;;;;24.35;14.35;;;;;;;2.24;48.99;93220.31;4997463;28;20076;-76
2023/03/06 03:26:36;;;;;;;21.00;12.93;;;;;;;2.57;48.15;93231.03;5020438;28;20598;-77
2023/03/06 03:29:05;;;;;;;22.50;14.35;;;;;;;2.36;47.86;93199.72;5025836;28;20022;-75
2023/03/06 03:31:32;;;;;;;22.85;14.10;;;;;;;2.57;47.71;93226.59;5025588;28;20128;-76
2023/03/06 03:33:59;;;;;;;22.13;12.98;;;;;;;2.64;47.37;93203.44;5007853;28;20044;-76
2023/03/06 03:36:26;;;;;;;22.88;14.68;;;;;;;2.55;48.06;93228.69;5024819;28;20045;-76
2023/03/06 03:38:52;;;;;;;24.00;14.40;;;;;;;1.79;49.02;93194.41;5026290;28;20036;-76
2023/03/06 03:41:17;;;;;;;26.58;13.73;;;;;;;2.50;48.42;93226.91;5024653;28;20022;-77
2023/03/06 03:43:42;;;;;;;22.70;13.98;;;;;;;2.65;47.53;93220.72;5026748;28;20034;-75
2023/03/06 03:46:08;;;;;;;24.60;15.65;;;;;;;2.43;48.29;93215.94;5027253;28;20331;-75
2023/03/06 03:48:33;;;;;;;22.15;14.80;;;;;;;2.82;48.18;93234.22;5027438;28;20045;-77
2023/03/06 03:51:11;;;;;;;23.80;15.98;;;;;;;3.01;47.41;93234.28;5008699;28;20038;-75
2023/03/06 03:53:37;;;;;;;19.42;13.60;;;;;;;2.98;47.31;93240.09;5018436;28;20460;-76
2023/03/06 03:56:03;;;;;;;25.70;14.68;;;;;;;3.03;47.67;93245.28;5027524;28;20041;-75
2023/03/06 03:58:28;;;;;;;22.15;14.68;;;;;;;3.26;47.28;93238.47;5026309;28;20493;-76
2023/03/06 04:00:54;;;;;;;22.23;14.25;;;;;;;3.02;47.60;93251.59;5023864;28;20041;-76
2023/03/06 04:03:20;;;;;;;29.20;17.05;;;;;;;3.03;47.11;93240.03;5027899;28;20041;-75
2023/03/06 04:05:45;;;;;;;23.48;15.40;;;;;;;3.06;47.54;93244.72;5014213;28;20048;-75
2023/03/06 04:08:11;;;;;;;22.08;15.70;;;;;;;3.14;47.67;93230.97;5030587;28;20029;-76
2023/03/06 04:10:38;;;;;;;26.00;15.40;;;;;;;3.50;47.20;93259.44;5028357;28;20033;-76
2023/03/06 04:13:04;;;;;;;23.02;16.00;;;;;;;3.56;46.93;93251.22;5028655;28;20033;-75
2023/03/06 04:15:30;;;;;;;25.65;15.80;;;;;;;2.86;47.54;93258.06;5026837;28;20057;-76
2023/03/06 04:17:55;;;;;;;27.02;16.92;;;;;;;2.95;47.73;93246.66;5025628;28;20052;-76
2023/03/06 04:20:21;;;;;;;27.63;17.25;;;;;;;3.06;47.29;93243.94;5010045;28;20528;-75
2023/03/06 04:22:46;;;;;;;27.08;16.98;;;;;;;2.02;49.34;93235.69;5024615;28;20053;-75
2023/03/06 04:25:11;;;;;;;26.58;16.45;;;;;;;1.57;50.28;93219.19;5023318;28;20056;-75
2023/03/06 04:27:37;;;;;;;30.38;16.95;;;;;;;2.37;49.43;93259.03;5023362;28;20453;-75
2023/03/06 04:30:05;;;;;;;25.83;14.68;;;;;;;2.08;49.54;93247.72;5022872;28;20456;-76
2023/03/06 04:32:30;;;;;;;25.65;16.45;;;;;;;2.53;48.64;93254.44;5025069;28;20073;-75
2023/03/06 04:34:56;;;;;;;27.98;16.23;;;;;;;2.32;48.76;93219.72;5026274;28;20034;-77
2023/03/06 04:37:23;;;;;;;30.40;17.33;;;;;;;2.29;49.29;93262.25;5024779;28;20029;-75
2023/03/06 04:39:49;;;;;;;22.10;16.58;;;;;;;2.00;50.28;93269.31;5023051;28;20037;-75
2023/03/06 04:42:15;;;;;;;27.42;16.75;;;;;;;1.22;51.89;93279.63;5027492;28;20041;-77
2023/03/06 04:44:40;;;;;;;31.17;18.13;;;;;;;0.98;52.70;93260.34;5024170;28;20049;-77
2023/03/06 04:47:06;;;;;;;26.40;17.52;;;;;;;1.13;52.87;93276.75;5025875;28;20029;-75
2023/03/06 04:49:31;;;;;;;26.77;17.48;;;;;;;1.97;51.60;93275.84;5023676;28;20064;-75
2023/03/06 04:51:57;;;;;;;28.05;17.60;;;;;;;1.88;50.63;93255.72;5013618;28;20091;-75
2023/03/06 04:54:22;;;;;;;29.17;17.35;;;;;;;1.91;50.94;93270.94;5023913;28;20750;-75
2023/03/06 04:56:48;;;;;;;27.95;17.55;;;;;;;1.76;51.13;93274.41;5025072;28;20448;-77
2023/03/06 04:59:13;;;;;;;24.40;15.65;;;;;;;1.62;51.10;93247.19;5023545;28;20025;-77
2023/03/06 05:01:38;;;;;;;28.17;18.80;;;;;;;1.74;51.04;93259.97;5023909;28;20041;-76
2023/03/06 05:04:04;;;;;;;27.23;16.20;;;;;;;2.05;50.11;93279.75;5023606;28;20048;-76
2023/03/06 05:06:29;;;;;;;22.92;15.23;;;;;;;1.26;52.23;93270.19;5025957;28;20042;-76
2023/03/06 05:08:55;;;;;;;26.80;17.13;;;;;;;1.46;52.09;93253.59;5024187;28;20050;-75
2023/03/06 05:11:20;;;;;;;27.60;16.63;;;;;;;1.49;52.11;93259.06;5031526;28;20056;-75
2023/03/06 05:13:46;;;;;;;30.35;18.63;;;;;;;1.48;52.17;93273.22;5027821;28;20037;-76
2023/03/06 05:16:11;;;;;;;29.73;18.75;;;;;;;1.95;51.29;93271.94;5027588;28;20574;-76
2023/03/06 05:18:36;;;;;;;30.25;19.88;;;;;;;2.27;50.69;93271.44;5022687;28;20045;-76
2023/03/06 05:21:03;;;;;;;29.85;18.98;;;;;;;2.45;50.46;93291.81;5025141;28;20040;-78
2023/03/06 05:23:30;;;;;;;28.58;17.48;;;;;;;2.53;49.82;93259.69;5022644;28;20488;-75
2023/03/06 05:25:57;;;;;;;29.65;19.02;;;;;;;2.23;50.21;93279.09;5024064;28;20131;-77
2023/03/06 05:28:22;;;;;;;27.83;18.25;;;;;;;2.37;49.86;93295.78;5023023;28;20052;-76
2023/03/06 05:30:48;;;;;;;25.65;17.55;;;;;;;1.12;52.92;93290.13;5006850;28;20033;-75
2023/03/06 05:33:13;;;;;;;28.35;16.77;;;;;;;1.12;53.54;93290.13;5023982;28;20052;-76
2023/03/06 05:35:45;;;;;;;29.50;17.63;;;;;;;1.38;52.92;93275.09;5024938;28;20520;-75
2023/03/06 05:38:11;;;;;;;28.45;17.73;;;;;;;2.04;51.63;93259.81;5023917;28;20089;-77
2023/03/06 05:40:40;;;;;;;31.35;18.98;;;;;;;2.15;51.03;93284.16;5026158;28;20065;-76
2023/03/06 05:43:06;;;;;;;34.50;18.02;;;;;;;1.90;51.49;93283.25;5022758;28;20064;-77
2023/03/06 05:45:32;;;;;;;29.55;18.38;;;;;;;1.85;51.59;93291.13;5016442;28;20041;-75
2023/03/06 05:47:58;;;;;;;33.53;18.02;;;;;;;1.87;51.61;93267.25;5019723;28;20561;-75
2023/03/06 05:50:23;;;;;;;26.48;17.40;;;;;;;1.88;51.71;93287.97;5025007;28;20033;-75
2023/03/06 05:52:49;;;;;;;28.00;17.00;;;;;;;1.57;52.65;93282.06;5021978;28;20079;-75
2023/03/06 05:55:15;;;;;;;28.30;18.00;;;;;;;2.12;51.33;93293.34;5023057;28;20624;-75
2023/03/06 05:57:41;;;;;;;31.70;16.85;;;;;;;2.19;51.35;93300.91;5020083;28;20052;-76
2023/03/06 06:00:08;;;;;;;24.92;17.27;;;;;;;2.33;51.02;93284.28;5004177;28;20612;-75
2023/03/06 06:02:34;;;;;;;25.88;16.40;;;;;;;2.37;50.17;93316.78;5019799;28;20076;-76
2023/03/06 06:05:01;;;;;;;30.17;18.17;;;;;;;1.48;52.77;93312.53;5022274;28;20069;-77
2023/03/06 06:07:26;;;;;;;25.13;16.27;;;;;;;1.74;52.19;93322.91;5019666;28;20093;-75
2023/03/06 06:09:52;;;;;;;25.75;16.48;;;;;;;2.23;51.13;93289.59;5022796;28;20038;-75
2023/03/06 06:12:18;;;;;;;26.27;16.92;;;;;;;2.70;50.49;93320.44;5022309;28;20104;-74
2023/03/06 06:14:43;;;;;;;30.70;16.83;;;;;;;2.59;50.12;93326.06;5026073;28;20033;-74
2023/03/06 06:17:11;;;;;;;28.27;17.30;;;;;;;2.26;50.63;93320.53;5024253;28;20660;-75
2023/03/06 06:19:39;;;;;;;26.98;17.83;;;;;;;2.20;50.66;93326.09;5007965;28;20025;-75
2023/03/06 06:22:04;;;;;;;29.40;17.83;;;;;;;2.25;50.47;93329.47;5003509;28;20604;-74
2023/03/06 06:24:31;;;;;;;25.60;15.88;;;;;;;1.81;50.93;93297.97;5022623;28;20140;-75
2023/03/06 06:26:57;;;;;;;30.55;17.73;;;;;;;1.68;51.88;93325.53;5004770;28;20076;-75
2023/03/06 06:29:24;;;;;;;37.83;18.35;;;;;;;1.98;51.32;93308.13;5022353;28;20049;-75
2023/03/06 06:31:51;;;;;;;25.08;15.35;;;;;;;1.82;51.33;93330.19;5018492;28;20085;-75
2023/03/06 06:34:17;;;;;;;26.88;16.25;;;;;;;2.00;51.33;93321.75;5022630;28;20038;-74
2023/03/06 06:36:43;;;;;;;29.05;17.45;;;;;;;1.97;51.18;93327.53;5001179;28;20596;-77
2023/03/06 06:39:10;;;;;;;28.48;16.40;;;;;;;2.24;51.04;93332.34;5012608;28;20033;-75
2023/03/06 06:41:35;;;;;;;28.38;17.02;;;;;;;2.22;49.63;93302.97;5002401;28;20034;-76
2023/03/06 06:44:06;;;;;;;27.73;16.27;;;;;;;2.45;50.09;93328.53;5027434;28;20041;-75
2023/03/06 06:46:33;;;;;;;23.33;15.82;;;;;;;2.62;49.32;93328.91;5004005;28;20580;-75
2023/03/06 06:49:02;;;;;;;25.48;15.32;;;;;;;1.59;50.43;93290.47;5025331;28;20633;-76
2023/03/06 06:51:32;;;;;;;24.58;16.42;;;;;;;1.57;51.51;93344.97;5021345;28;20388;-77
2023/03/06 06:53:58;;;;;;;28.83;15.90;;;;;;;1.97;51.24;93346.66;5022636;28;20049;-77
2023/03/06 06:56:24;;;;;;;26.95;16.63;;;;;;;2.37;50.38;93337.78;5019935;28;20126;-76
2023/03/06 06:58:53;;;;;;;25.17;17.58;;;;;;;2.25;50.36;93349.66;5026878;28;20038;-75
2023/03/06 07:01:19;;;;;;;28.38;17.27;;;;;;;2.69;50.25;93355.66;5022616;28;20064;-76
2023/03/06 07:03:47;;;;;;;23.95;15.98;;;;;;;2.28;50.43;93355.16;5027297;28;20041;-75
2023/03/06 07:06:13;;;;;;;26.85;17.02;;;;;;;2.45;50.32;93360.78;5023022;28;20116;-76
2023/03/06 07:08:38;;;;;;;32.55;17.05;;;;;;;2.38;50.10;93349.84;5026185;28;20110;-74
2023/03/06 07:11:08;;;;;;;31.67;18.25;;;;;;;2.30;50.87;93353.06;5025299;28;20026;-77
2023/03/06 07:13:33;;;;;;;27.52;18.02;;;;;;;2.09;51.33;93335.84;5031493;28;20030;-75
2023/03/06 07:15:59;;;;;;;28.88;17.10;;;;;;;2.42;50.42;93316.72;5015230;28;20049;-75
2023/03/06 07:18:24;;;;;;;28.45;18.73;;;;;;;2.35;50.40;93339.13;5024680;28;20053;-76
2023/03/06 07:20:52;;;;;;;24.52;16.65;;;;;;;3.13;48.93;93341.63;5021648;28;20045;-76
2023/03/06 07:23:17;;;;;;;29.98;17.35;;;;;;;3.21;48.68;93347.03;5022546;28;20029;-76
2023/03/06 07:25:43;;;;;;;31.35;19.85;;;;;;;2.86;49.15;93366.53;5022717;28;20036;-75
2023/03/06 07:28:08;;;;;;;28.27;19.30;;;;;;;2.79;49.74;93349.53;5002235;28;20072;-75
2023/03/06 07:30:33;;;;;;;28.15;18.40;;;;;;;2.32;49.43;93284.53;5020135;28;20133;-75
2023/03/06 07:32:59;;;;;;;31.65;19.92;;;;;;;2.77;49.06;93352.44;5018449;28;20096;-76
2023/03/06 07:35:25;;;;;;;30.70;18.77;;;;;;;2.77;49.73;93347.19;5002221;28;20033;-76
2023/03/06 07:37:50;;;;;;;30.17;18.05;;;;;;;3.44;49.05;93345.47;5021949;28;20010;-75
2023/03/06 07:40:18;;;;;;;42.45;21.50;;;;;;;3.84;47.45;93358.16;5003127;28;20044;-74
2023/03/06 07:42:44;;;;;;;25.52;17.70;;;;;;;3.60;48.04;93346.88;5018186;28;20405;-74
2023/03/06 07:45:11;;;;;;;29.52;18.30;;;;;;;3.50;48.11;93354.09;5021525;28;20124;-75
2023/03/06 07:47:37;;;;;;;29.13;17.35;;;;;;;3.76;48.01;93336.97;5017166;28;20033;-76
2023/03/06 07:50:05;;;;;;;29.85;18.05;;;;;;;3.32;48.34;93343.25;5023339;28;20068;-75
2023/03/06 07:52:31;;;;;;;32.72;18.60;;;;;;;4.05;47.95;93360.56;5019596;28;20018;-76
2023/03/06 07:54:57;;;;;;;56.20;21.40;;;;;;;3.66;47.75;93342.34;5001375;28;20040;-75
2023/03/06 07:57:22;;;;;;;57.17;22.42;;;;;;;3.46;48.11;93353.09;5019755;28;20038;-75
2023/03/06 07:59:48;;;;;;;51.75;22.80;;;;;;;3.10;48.72;93350.81;5022411;28;20044;-75
2023/03/06 08:02:13;;;;;;;38.40;18.90;;;;;;;3.47;48.77;93355.47;5022813;28;20029;-76
2023/03/06 08:04:38;;;;;;;30.90;18.95;;;;;;;3.88;47.25;93353.13;5021358;28;20034;-75
2023/03/06 08:07:04;;;;;;;31.85;19.60;;;;;;;3.61;47.87;93350.31;5020030;28;20044;-76
2023/03/06 08:09:30;;;;;;;29.30;19.67;;;;;;;3.92;47.19;93356.75;5017842;28;20048;-75
2023/03/06 08:11:56;;;;;;;33.25;19.27;;;;;;;3.71;48.10;93363.34;5009803;28;20037;-75
2023/03/06 08:14:21;;;;;;;38.03;20.17;;;;;;;2.91;48.72;93321.84;5021854;28;22648;-75
2023/03/06 08:16:49;;;;;;;29.25;19.67;;;;;;;3.54;47.98;93355.09;5022298;28;20063;-77
2023/03/06 08:19:14;;;;;;;29.45;19.65;;;;;;;3.91;48.14;93344.69;5022825;28;20108;-75
2023/03/06 08:21:41;;;;;;;31.13;19.30;;;;;;;4.48;46.35;93361.31;5003736;28;20037;-74
2023/03/06 08:24:06;;;;;;;28.90;19.63;;;;;;;4.54;45.94;93339.09;5011645;28;20065;-75
2023/03/06 08:26:34;;;;;;;31.50;18.45;;;;;;;4.77;45.20;93325.03;5010639;28;20041;-76
2023/03/06 08:29:01;;;;;;;29.10;18.48;;;;;;;5.00;45.40;93353.09;5025427;28;20535;-77
2023/03/06 08:31:42;;;;;;;51.50;18.83;;;;;;;4.63;46.00;93355.81;5022487;28;20417;-75
2023/03/06 08:34:16;;;;;;;57.45;20.58;;;;;;;4.90;46.07;93360.38;5021876;28;20144;-77
2023/03/06 08:36:41;;;;;;;35.63;18.67;;;;;;;5.37;44.64;93352.22;4999775;28;20137;-75
2023/03/06 08:39:07;;;;;;;27.50;18.05;;;;;;;5.62;43.73;93343.06;5024891;28;20100;-75
2023/03/06 08:41:34;;;;;;;35.42;19.58;;;;;;;5.41;44.57;93355.03;5017641;28;20168;-76
2023/03/06 08:44:00;;;;;;;31.50;18.63;;;;;;;5.51;43.69;93347.72;5018848;28;20049;-75
2023/03/06 08:46:27;;;;;;;38.78;19.00;;;;;;;5.29;44.53;93344.16;5001156;28;20502;-75
2023/03/06 08:48:53;;;;;;;32.47;18.95;;;;;;;5.49;43.94;93364.91;5020182;28;20603;-76
2023/03/06 08:51:19;;;;;;;26.45;18.55;;;;;;;5.40;44.35;93366.66;5019801;28;20485;-76
2023/03/06 08:53:45;;;;;;;30.80;19.10;;;;;;;5.75;43.97;93355.47;5019902;28;20046;-77
2023/03/06 08:56:16;;;;;;;36.30;21.30;;;;;;;4.57;45.53;93351.69;5021115;28;20510;-77
2023/03/06 08:58:42;;;;;;;28.52;17.80;;;;;;;5.21;44.65;93340.38;5006132;28;20049;-76
2023/03/06 09:01:16;;;;;;;32.70;20.52;;;;;;;5.32;45.15;93352.31;5023054;28;20068;-75
2023/03/06 09:03:42;;;;;;;38.50;20.13;;;;;;;4.48;45.79;93340.25;5005809;28;20040;-75
2023/03/06 09:06:07;;;;;;;42.40;21.45;;;;;;;4.68;46.08;93347.84;5003527;28;20124;-75
2023/03/06 09:08:32;;;;;;;60.42;23.75;;;;;;;4.72;45.17;93322.47;5019812;28;20065;-76
2023/03/06 09:10:58;;;;;;;37.78;20.90;;;;;;;4.98;45.17;93354.47;5018721;28;20444;-75
2023/03/06 09:13:23;;;;;;;29.38;20.20;;;;;;;5.31;45.08;93356.00;5004543;28;20064;-75
2023/03/06 09:15:49;;;;;;;34.53;19.98;;;;;;;5.66;44.66;93349.31;5020718;28;20033;-75
2023/03/06 09:18:14;;;;;;;40.40;21.77;;;;;;;5.85;43.51;93334.16;5020131;28;20038;-75
2023/03/06 09:20:39;;;;;;;38.08;21.80;;;;;;;5.87;44.08;93347.81;5020558;28;20121;-75
2023/03/06 09:23:05;;;;;;;30.55;19.05;;;;;;;5.63;43.36;93320.84;5009820;28;20052;-75
2023/03/06 09:25:30;;;;;;;31.55;20.13;;;;;;;5.36;43.98;93341.94;5018719;28;20044;-75
2023/03/06 09:27:55;;;;;;;37.65;20.52;;;;;;;5.02;45.07;93329.88;5019107;28;20102;-76
2023/03/06 09:30:21;;;;;;;38.47;19.23;;;;;;;5.29;44.74;93336.25;5021284;28;20042;-75
2023/03/06 09:32:46;;;;;;;30.48;19.77;;;;;;;5.50;44.40;93329.56;5018553;28;20746;-75
2023/03/06 09:35:13;;;;;;;30.83;20.42;;;;;;;4.99;44.71;93333.09;5018026;28;20431;-76
2023/03/06 09:37:40;;;;;;;32.20;19.92;;;;;;;5.32;44.64;93330.44;5000037;28;20036;-76
2023/03/06 09:40:06;;;;;;;32.97;21.58;;;;;;;5.69;44.70;93347.91;5015676;28;20034;-76
2023/03/06 09:42:32;;;;;;;27.42;19.10;;;;;;;6.18;43.22;93315.53;5018100;28;20041;-76
2023/03/06 09:45:00;;;;;;;31.17;19.23;;;;;;;6.02;43.08;93322.22;5016022;28;20038;-75
2023/03/06 09:48:00;;;;;;;34.15;20.40;;;;;;;5.87;43.80;93334.63;5012598;28;20038;-76
2023/03/06 09:50:54;;;;;;;29.52;19.48;;;;;;;5.95;43.41;93333.94;5014922;28;20040;-75
2023/03/06 09:53:25;;;;;;;31.27;18.73;;;;;;;5.61;43.91;93333.56;5001638;28;20029;-78
2023/03/06 09:56:00;;;;;;;37.10;21.48;;;;;;;5.49;45.00;93314.78;5018471;28;20048;-75
2023/03/06 09:58:27;;;;;;;36.33;19.42;;;;;;;5.64;44.51;93327.69;5015839;28;20164;-75
2023/03/06 10:00:59;;;;;;;27.08;19.00;;;;;;;5.87;43.48;93329.34;5014865;28;20091;-76
2023/03/06 10:03:30;;;;;;;33.28;18.05;;;;;;;5.73;44.16;93320.66;5023500;28;20046;-75
2023/03/06 10:06:10;;;;;;;35.83;19.35;;;;;;;5.65;44.49;93304.75;5008903;28;20607;-76
2023/03/06 10:08:58;;;;;;;29.27;18.98;;;;;;;5.78;43.58;93319.78;5022384;28;20092;-76
2023/03/06 10:12:05;;;;;;;30.50;19.27;;;;;;;6.07;45.86;93298.34;5025322;28;20044;-76
2023/03/06 10:14:42;;;;;;;27.08;17.33;;;;;;;6.75;43.28;93293.59;5019633;28;20046;-76
2023/03/06 10:17:16;;;;;;;27.50;17.10;;;;;;;7.38;43.84;93313.72;5009100;28;20760;-76
2023/03/06 10:19:42;;;;;;;33.78;20.02;;;;;;;7.16;41.69;93303.97;5027975;28;20040;-76
2023/03/06 10:22:23;;;;;;;30.38;19.65;;;;;;;6.34;43.16;93300.94;5007516;28;20038;-77
2023/03/06 10:25:13;;;;;;;26.80;18.13;;;;;;;6.38;42.73;93299.25;5026799;28;20060;-76
2023/03/06 10:27:41;;;;;;;26.60;17.38;;;;;;;7.14;43.22;93305.38;5012675;28;20045;-76
2023/03/06 10:30:25;;;;;;;19.23;11.60;;;;;;;7.59;40.78;93298.84;5028021;28;20042;-76
2023/03/06 10:33:07;;;;;;;32.85;14.07;;;;;;;6.97;41.85;93294.69;5018590;28;20059;-76
2023/03/06 10:36:04;;;;;;;19.13;11.48;;;;;;;7.32;41.76;93290.34;5029843;28;20087;-76
2023/03/06 10:38:30;;;;;;;12.10;8.35;;;;;;;7.86;40.32;93275.94;5006769;28;20042;-76
2023/03/06 10:41:11;;;;;;;17.00;8.88;;;;;;;8.11;40.43;93275.97;5004514;28;20504;-76
2023/03/06 10:43:37;;;;;;;23.08;14.30;;;;;;;8.05;39.75;93271.13;5006915;28;20129;-75
2023/03/06 10:46:04;;;;;;;19.13;7.78;;;;;;;8.16;40.27;93264.44;5017667;28;20136;-74
2023/03/06 10:48:34;;;;;;;10.45;6.82;;;;;;;8.46;39.92;93271.44;5007832;28;20034;-74
2023/03/06 10:51:20;;;;;;;10.57;6.93;;;;;;;8.59;39.19;93267.88;5009464;28;20033;-74
2023/03/06 10:53:59;;;;;;;8.85;6.47;;;;;;;8.71;39.27;93255.84;5013385;28;20137;-78
2023/03/06 10:56:37;;;;;;;12.32;6.97;;;;;;;8.88;38.20;93255.81;5021786;28;20045;-75
2023/03/06 10:59:16;;;;;;;11.38;7.32;;;;;;;8.92;40.05;93256.75;5025870;28;20058;-75
2023/03/06 11:01:44;;;;;;;13.32;7.95;;;;;;;8.75;38.56;93246.19;5013057;28;20033;-75
2023/03/06 11:04:20;;;;;;;12.25;7.43;;;;;;;8.81;38.17;93252.88;5009593;28;20038;-75
2023/03/06 11:06:46;;;;;;;11.20;6.93;;;;;;;9.11;37.66;93227.19;5024768;28;20077;-74
2023/03/06 11:09:23;;;;;;;17.38;9.18;;;;;;;9.20;37.28;93246.53;5022536;28;20080;-75
2023/03/06 11:11:50;;;;;;;13.32;6.40;;;;;;;9.21;37.74;93230.31;4996912;28;20126;-77
2023/03/06 11:14:23;;;;;;;8.48;6.18;;;;;;;9.48;36.82;93233.66;5024076;28;20029;-76
2023/03/06 11:16:52;;;;;;;11.23;6.97;;;;;;;9.25;35.89;93225.94;5024677;28;20033;-77
2023/03/06 11:19:21;;;;;;;13.10;6.22;;;;;;;9.16;36.50;93196.00;5025021;28;20117;-75
2023/03/06 11:22:15;;;;;;;8.27;6.00;;;;;;;9.51;36.88;93211.78;5024379;28;20038;-76
2023/03/06 11:24:46;;;;;;;13.75;7.07;;;;;;;9.85;36.33;93203.59;5009668;28;20052;-77
2023/03/06 11:27:24;;;;;;;14.55;7.25;;;;;;;9.70;35.83;93214.78;5023960;28;20121;-78
2023/03/06 11:29:54;;;;;;;8.65;6.13;;;;;;;9.89;35.84;93192.00;5008326;28;20120;-76